createdAt,value
2023-04-16T00:01:28.129Z,94661.22
2023-04-16T00:03:54.833Z,94658.28
2023-04-16T00:06:22.282Z,94661.91
2023-04-16T00:08:48.721Z,94656.13
2023-04-16T00:11:15.433Z,94650.03
2023-04-16T00:13:42.043Z,94656.59
2023-04-16T00:16:08.506Z,94663.72
2023-04-16T00:18:35.201Z,94658.09
2023-04-16T00:21:02.938Z,94654.13
2023-04-16T00:23:30.389Z,94655.63
2023-04-16T00:25:57.983Z,94656.47
2023-04-16T00:28:24.586Z,94649.88
2023-04-16T00:30:51.064Z,94659.91
2023-04-16T00:33:17.584Z,94659.41
2023-04-16T00:35:44.006Z,94654.63
2023-04-16T00:38:10.402Z,94660.72
2023-04-16T00:40:36.832Z,94660.34
2023-04-16T00:43:03.225Z,94659.56
2023-04-16T00:45:29.690Z,94669.16
2023-04-16T00:47:56.124Z,94658.22
2023-04-16T00:50:22.568Z,94654.06
2023-04-16T00:52:48.979Z,94658.50
2023-04-16T00:55:15.592Z,94664.59
2023-04-16T00:57:42.016Z,94663.28
2023-04-16T01:00:08.461Z,94659.69
2023-04-16T01:02:35.055Z,94667.09
2023-04-16T01:05:01.600Z,94674.16
2023-04-16T01:07:28.041Z,94669.38
2023-04-16T01:09:54.493Z,94669.03
2023-04-16T01:12:20.902Z,94671.50
2023-04-16T01:14:47.441Z,94678.94
2023-04-16T01:17:13.863Z,94673.00
2023-04-16T01:19:40.291Z,94661.97
2023-04-16T01:22:06.826Z,94674.16
2023-04-16T01:24:33.262Z,94674.69
2023-04-16T01:26:59.698Z,94679.09
2023-04-16T01:29:26.117Z,94680.19
2023-04-16T01:31:52.583Z,94671.75
2023-04-16T01:34:19.568Z,94669.94
2023-04-16T01:36:48.159Z,94675.75
2023-04-16T01:39:14.998Z,94675.56
2023-04-16T01:41:41.431Z,94676.94
2023-04-16T01:44:07.851Z,94678.09
2023-04-16T01:46:34.375Z,94673.81
2023-04-16T01:49:00.878Z,94678.31
2023-04-16T01:51:27.687Z,94687.66
2023-04-16T01:53:55.298Z,94688.78
2023-04-16T01:56:23.874Z,94689.63
2023-04-16T01:58:50.313Z,94690.13
2023-04-16T02:01:16.724Z,94689.81
2023-04-16T02:03:43.243Z,94679.78
2023-04-16T02:06:09.793Z,94677.63
2023-04-16T02:08:36.189Z,94684.06
2023-04-16T02:11:02.602Z,94672.44
2023-04-16T02:13:29.044Z,94679.31
2023-04-16T02:15:55.457Z,94691.34
2023-04-16T02:18:21.879Z,94694.63
2023-04-16T02:20:48.303Z,94695.66
2023-04-16T02:23:14.699Z,94688.72
2023-04-16T02:25:41.093Z,94697.78
2023-04-16T02:28:07.510Z,94690.72
2023-04-16T02:30:33.906Z,94691.84
2023-04-16T02:33:00.344Z,94696.28
2023-04-16T02:35:26.742Z,94694.63
2023-04-16T02:37:53.174Z,94691.16
2023-04-16T02:40:19.607Z,94703.25
2023-04-16T02:42:46.016Z,94695.50
2023-04-16T02:45:12.445Z,94695.44
2023-04-16T02:47:38.900Z,94695.59
2023-04-16T02:50:05.336Z,94698.69
2023-04-16T02:52:31.747Z,94689.00
2023-04-16T02:54:58.139Z,94694.09
2023-04-16T02:57:24.564Z,94693.44
2023-04-16T02:59:50.971Z,94692.78
2023-04-16T03:02:17.423Z,94689.34
2023-04-16T03:04:44.534Z,94685.38
2023-04-16T03:07:11.997Z,94680.91
2023-04-16T03:09:38.612Z,94681.03
2023-04-16T03:12:05.063Z,94681.38
2023-04-16T03:14:31.808Z,94687.28
2023-04-16T03:16:58.205Z,94690.84
2023-04-16T03:19:24.969Z,94693.16
2023-04-16T03:21:51.386Z,94693.16
2023-04-16T03:24:17.792Z,94690.16
2023-04-16T03:26:44.195Z,94694.25
2023-04-16T03:29:10.850Z,94690.03
2023-04-16T03:31:37.596Z,94695.94
2023-04-16T03:34:04.121Z,94700.84
2023-04-16T03:36:30.549Z,94696.06
2023-04-16T03:38:57.134Z,94696.06
2023-04-16T03:41:23.539Z,94699.72
2023-04-16T03:43:49.976Z,94702.34
2023-04-16T03:46:17.476Z,94708.44
2023-04-16T03:48:43.919Z,94707.75
2023-04-16T03:51:10.296Z,94711.06
2023-04-16T03:53:36.740Z,94707.16
2023-04-16T03:56:03.115Z,94698.88
2023-04-16T03:58:29.548Z,94705.06
2023-04-16T04:00:55.942Z,94699.72
2023-04-16T04:03:22.475Z,94702.50
2023-04-16T04:05:49.051Z,94694.31
2023-04-16T04:08:15.453Z,94699.66
2023-04-16T04:10:41.884Z,94698.91
2023-04-16T04:13:08.275Z,94699.25
2023-04-16T04:15:34.720Z,94697.72
2023-04-16T04:18:01.176Z,94702.16
2023-04-16T04:20:27.594Z,94693.28
2023-04-16T04:22:54.006Z,94702.06
2023-04-16T04:25:20.433Z,94695.72
2023-04-16T04:27:46.849Z,94700.94
2023-04-16T04:30:13.276Z,94706.22
2023-04-16T04:32:39.722Z,94707.81
2023-04-16T04:35:06.193Z,94705.94
2023-04-16T04:37:32.597Z,94706.56
2023-04-16T04:39:59.049Z,94698.63
2023-04-16T04:42:25.567Z,94701.94
2023-04-16T04:44:52.038Z,94698.88
2023-04-16T04:47:18.500Z,94701.81
2023-04-16T04:49:44.986Z,94695.28
2023-04-16T04:52:11.400Z,94698.25
2023-04-16T04:54:37.846Z,94698.41
2023-04-16T04:57:04.308Z,94699.75
2023-04-16T04:59:30.722Z,94699.25
2023-04-16T05:01:57.174Z,94704.09
2023-04-16T05:04:23.628Z,94695.19
2023-04-16T05:06:50.017Z,94700.53
2023-04-16T05:09:16.452Z,94693.28
2023-04-16T05:11:42.909Z,94699.16
2023-04-16T05:14:09.335Z,94702.78
2023-04-16T05:16:35.803Z,94706.16
2023-04-16T05:19:02.321Z,94710.25
2023-04-16T05:21:30.045Z,94706.88
2023-04-16T05:23:56.514Z,94708.16
2023-04-16T05:26:23.010Z,94714.25
2023-04-16T05:28:49.428Z,94721.88
2023-04-16T05:31:15.959Z,94720.84
2023-04-16T05:33:42.372Z,94723.00
2023-04-16T05:36:08.789Z,94718.09
2023-04-16T05:38:35.209Z,94724.25
2023-04-16T05:41:01.617Z,94723.59
2023-04-16T05:43:28.049Z,94723.28
2023-04-16T05:45:54.535Z,94724.31
2023-04-16T05:48:21.126Z,94725.13
2023-04-16T05:50:47.540Z,94726.75
2023-04-16T05:53:13.955Z,94726.75
2023-04-16T05:55:40.399Z,94731.59
2023-04-16T05:58:06.817Z,94725.78
2023-04-16T06:00:33.237Z,94733.22
2023-04-16T06:02:59.949Z,94730.13
2023-04-16T06:05:26.565Z,94730.47
2023-04-16T06:07:53.014Z,94740.53
2023-04-16T06:10:19.410Z,94737.56
2023-04-16T06:12:45.809Z,94731.31
2023-04-16T06:15:12.218Z,94730.19
2023-04-16T06:17:38.648Z,94728.94
2023-04-16T06:20:05.171Z,94727.63
2023-04-16T06:22:31.584Z,94729.63
2023-04-16T06:24:58.152Z,94731.28
2023-04-16T06:27:24.545Z,94735.41
2023-04-16T06:29:51.169Z,94728.84
2023-04-16T06:32:18.777Z,94740.91
2023-04-16T06:34:47.304Z,94743.19
2023-04-16T06:37:13.904Z,94744.34
2023-04-16T06:39:40.321Z,94743.66
2023-04-16T06:42:07.181Z,94739.03
2023-04-16T06:44:33.756Z,94738.03
2023-04-16T06:47:01.395Z,94742.69
2023-04-16T06:49:28.938Z,94748.31
2023-04-16T06:51:56.536Z,94752.09
2023-04-16T06:54:23.080Z,94752.78
2023-04-16T06:56:49.531Z,94752.16
2023-04-16T06:59:16.829Z,94751.81
2023-04-16T07:01:45.017Z,94757.59
2023-04-16T07:04:14.063Z,94764.19
2023-04-16T07:06:42.118Z,94759.41
2023-04-16T07:09:09.950Z,94767.50
2023-04-16T07:11:37.334Z,94767.84
2023-04-16T07:14:05.943Z,94766.56
2023-04-16T07:16:33.555Z,94770.00
2023-04-16T07:19:01.109Z,94776.31
2023-04-16T07:21:28.712Z,94778.28
2023-04-16T07:23:56.303Z,94771.84
2023-04-16T07:26:22.901Z,94772.53
2023-04-16T07:28:50.480Z,94767.25
2023-04-16T07:31:18.111Z,94769.88
2023-04-16T07:33:44.953Z,94771.69
2023-04-16T07:36:13.233Z,94781.44
2023-04-16T07:38:40.853Z,94779.13
2023-04-16T07:41:08.456Z,94778.63
2023-04-16T07:43:36.079Z,94780.28
2023-04-16T07:46:04.705Z,94783.22
2023-04-16T07:48:32.268Z,94776.31
2023-04-16T07:51:00.873Z,94772.53
2023-04-16T07:53:28.450Z,94775.34
2023-04-16T07:55:56.040Z,94784.56
2023-04-16T07:58:23.638Z,94787.38
2023-04-16T08:00:51.236Z,94791.84
2023-04-16T08:03:18.987Z,94799.06
2023-04-16T08:05:46.411Z,94802.69
2023-04-16T08:08:14.024Z,94795.78
2023-04-16T08:10:41.604Z,94808.97
2023-04-16T08:13:09.186Z,94810.78
2023-04-16T08:15:36.883Z,94807.66
2023-04-16T08:18:05.432Z,94819.19
2023-04-16T08:20:33.977Z,94820.19
2023-04-16T08:23:01.595Z,94826.44
2023-04-16T08:25:30.158Z,94827.44
2023-04-16T08:27:56.752Z,94832.22
2023-04-16T08:30:24.349Z,94835.53
2023-04-16T08:32:51.979Z,94831.88
2023-04-16T08:35:20.521Z,94831.88
2023-04-16T08:37:47.113Z,94826.25
2023-04-16T08:40:13.725Z,94823.78
2023-04-16T08:42:40.445Z,94818.34
2023-04-16T08:45:07.891Z,94824.44
2023-04-16T08:47:36.546Z,94827.09
2023-04-16T08:50:04.075Z,94837.97
2023-04-16T08:52:32.670Z,94836.00
2023-04-16T08:55:00.256Z,94837.66
2023-04-16T08:57:27.865Z,94832.38
2023-04-16T08:59:55.460Z,94836.50
2023-04-16T09:02:24.130Z,94843.59
2023-04-16T09:04:51.673Z,94841.94
2023-04-16T09:07:19.215Z,94840.50
2023-04-16T09:09:47.834Z,94841.47
2023-04-16T09:12:14.408Z,94839.47
2023-04-16T09:14:42.089Z,94841.28
2023-04-16T09:17:09.598Z,94842.94
2023-04-16T09:19:36.490Z,94838.16
2023-04-16T09:22:04.779Z,94848.06
2023-04-16T09:24:32.382Z,94841.75
2023-04-16T09:26:59.960Z,94849.38
2023-04-16T09:29:29.128Z,94844.56
2023-04-16T09:31:57.175Z,94843.22
2023-04-16T09:34:24.748Z,94849.00
2023-04-16T09:36:52.383Z,94847.34
2023-04-16T09:39:19.992Z,94841.88
2023-04-16T09:41:47.551Z,94848.63
2023-04-16T09:44:16.134Z,94847.81
2023-04-16T09:46:43.736Z,94844.94
2023-04-16T09:49:12.605Z,94851.22
2023-04-16T09:51:39.935Z,94848.69
2023-04-16T09:54:08.530Z,94850.47
2023-04-16T09:56:36.118Z,94856.75
2023-04-16T09:59:03.704Z,94852.13
2023-04-16T10:01:31.335Z,94856.75
2023-04-16T10:04:00.043Z,94862.72
2023-04-16T10:06:28.509Z,94859.38
2023-04-16T10:08:57.308Z,94861.13
2023-04-16T10:11:27.062Z,94852.66
2023-04-16T10:14:28.281Z,94856.09
2023-04-16T10:16:53.086Z,94862.31
2023-04-16T10:19:20.646Z,94862.81
2023-04-16T10:21:48.242Z,94867.91
2023-04-16T10:24:15.816Z,94860.28
2023-04-16T10:26:44.656Z,94859.25
2023-04-16T10:29:12.236Z,94862.56
2023-04-16T10:31:39.634Z,94870.19
2023-04-16T10:34:07.199Z,94866.19
2023-04-16T10:36:34.786Z,94876.56
2023-04-16T10:39:02.444Z,94872.53
2023-04-16T10:41:31.033Z,94868.66
2023-04-16T10:43:58.644Z,94879.31
2023-04-16T10:46:26.241Z,94882.38
2023-04-16T10:48:53.813Z,94878.28
2023-04-16T10:51:21.419Z,94880.41
2023-04-16T10:53:49.010Z,94872.72
2023-04-16T10:56:16.585Z,94875.94
2023-04-16T10:58:45.462Z,94872.84
2023-04-16T11:52:26.254Z,94887.44
2023-04-16T12:11:40.906Z,94869.09
2023-04-16T12:16:53.260Z,94867.75
2023-04-16T12:19:43.660Z,94868.84
2023-04-16T12:22:12.434Z,94872.84
2023-04-16T12:24:41.371Z,94871.13
2023-04-16T12:29:58.580Z,94877.94
2023-04-16T12:32:28.680Z,94886.66
2023-04-16T12:35:03.096Z,94884.03
2023-04-16T12:37:36.289Z,94883.84
2023-04-16T12:42:59.203Z,94884.59
2023-04-16T12:48:10.986Z,94879.09
2023-04-16T12:53:26.296Z,94885.69
2023-04-16T13:12:23.500Z,94870.03
2023-04-16T13:14:52.489Z,94870.88
2023-04-16T13:17:33.158Z,94872.28
2023-04-16T13:20:13.757Z,94871.09
2023-04-16T13:25:31.788Z,94876.47
2023-04-16T13:28:02.429Z,94873.06
2023-04-16T13:30:40.023Z,94868.72
2023-04-16T13:41:23.220Z,94877.75
2023-04-16T14:19:36.182Z,94886.69
2023-04-16T14:39:06.278Z,94902.16
